Time;durP1;ratioP1;P1;durP2;ratioP2;P2;SDS_P1;SDS_P2;PMS_P1;PMS_P2;Temp;Humidity;BMP_temperature;BMP_pressure;BME280_temperature;BME280_humidity;BME280_pressure;Samples;Min_cycle;Max_cycle;Signal;HPM_P1;HPM_P2
2023/05/27 00:00:58;;;;;;;;;;;;;;;22.37;49.51;100769.34;103268;1291;61345;-84
2023/05/27 00:03:23;;;;;;;;;;;;;;;22.37;49.58;100775.42;102992;1292;61496;-84
2023/05/27 00:05:49;;;;;;;;;;;;;;;22.37;49.53;100780.80;102987;1295;61432;-84
2023/05/27 00:08:15;;;;;;;;;;;;;;;22.37;49.58;100779.56;103011;1292;61547;-84
2023/05/27 00:10:40;;;;;;;;;;;;;;;22.37;49.59;100778.65;103104;1292;61390;-83
2023/05/27 00:13:06;;;;;;;;;;;;;;;22.37;49.58;100777.60;102994;1292;61383;-83
2023/05/27 00:15:31;;;;;;;;;;;;;;;22.37;49.57;100777.95;102954;1297;61329;-83
2023/05/27 00:18:01;;;;;;;;;;;;;;;22.37;49.63;100777.26;102955;1295;62978;-83
2023/05/27 00:20:29;;;;;;;;;;;;;;;22.36;49.61;100781.05;103078;1292;75514;-83
2023/05/27 00:22:56;;;;;;;;;;;;;;;22.36;49.58;100779.26;103142;1289;61358;-84
2023/05/27 00:25:24;;;;;;;;;;;;;;;22.37;49.66;100782.10;103436;1289;61467;-83
2023/05/27 00:27:49;;;;;;;;;;;;;;;22.36;49.61;100783.02;103298;1289;72257;-83
2023/05/27 00:30:15;;;;;;;;;;;;;;;22.36;49.67;100776.94;103501;1289;61840;-83
2023/05/27 00:32:41;;;;;;;;;;;;;;;22.36;49.55;100771.56;103243;1289;61388;-83
2023/05/27 00:35:07;;;;;;;;;;;;;;;22.36;49.72;100768.70;103437;1286;62276;-83
2023/05/27 00:37:33;;;;;;;;;;;;;;;22.36;49.70;100768.14;103511;1287;61310;-82
2023/05/27 00:39:58;;;;;;;;;;;;;;;22.36;49.66;100768.17;103617;1286;61652;-84
2023/05/27 00:42:24;;;;;;;;;;;;;;;22.36;49.67;100767.80;103567;1285;61470;-84
2023/05/27 00:44:49;;;;;;;;;;;;;;;22.35;49.66;100768.41;103675;1285;61412;-83
2023/05/27 00:47:18;;;;;;;;;;;;;;;22.35;49.71;100762.11;103499;1292;61455;-83
2023/05/27 00:49:44;;;;;;;;;;;;;;;22.35;49.59;100759.46;103593;1286;72538;-84
2023/05/27 00:52:10;;;;;;;;;;;;;;;22.35;49.68;100762.85;103475;1290;61403;-84
2023/05/27 00:54:36;;;;;;;;;;;;;;;22.36;49.71;100758.88;103493;1286;61371;-83
2023/05/27 00:57:02;;;;;;;;;;;;;;;22.35;49.66;100751.95;103434;1286;61316;-83
2023/05/27 00:59:27;;;;;;;;;;;;;;;22.35;49.59;100750.33;103653;1291;61409;-83
2023/05/27 01:01:53;;;;;;;;;;;;;;;22.34;49.67;100750.14;103527;1286;62039;-83
2023/05/27 01:04:18;;;;;;;;;;;;;;;22.35;49.84;100755.73;103556;1286;61386;-83
2023/05/27 01:07:03;;;;;;;;;;;;;;;22.34;49.66;100750.50;103543;1287;61483;-83
2023/05/27 01:09:35;;;;;;;;;;;;;;;22.35;49.64;100748.70;103631;1286;61396;-82
2023/05/27 01:12:08;;;;;;;;;;;;;;;22.34;49.71;100746.76;103802;1285;73416;-84
2023/05/27 01:14:35;;;;;;;;;;;;;;;22.34;49.75;100744.95;103482;1286;75473;-83
2023/05/27 01:17:01;;;;;;;;;;;;;;;22.34;49.64;100741.05;103600;1286;61810;-83
2023/05/27 01:19:30;;;;;;;;;;;;;;;22.34;49.75;100734.73;103646;1287;62381;-83
2023/05/27 01:21:56;;;;;;;;;;;;;;;22.34;49.76;100740.12;103563;1291;73542;-83
2023/05/27 01:24:21;;;;;;;;;;;;;;;22.34;49.81;100734.95;103438;1286;61797;-83
2023/05/27 01:26:47;;;;;;;;;;;;;;;22.34;49.81;100732.98;103606;1287;62062;-83
2023/05/27 01:29:13;;;;;;;;;;;;;;;22.34;49.76;100738.32;103563;1286;61256;-83
2023/05/27 01:31:59;;;;;;;;;;;;;;;22.34;49.75;100741.22;103549;1286;61444;-83
2023/05/27 01:34:28;;;;;;;;;;;;;;;22.34;49.69;100739.45;103448;1285;75414;-83
2023/05/27 01:36:56;;;;;;;;;;;;;;;22.34;49.84;100734.23;103529;1286;61292;-83
2023/05/27 01:39:21;;;;;;;;;;;;;;;22.33;49.66;100731.75;103562;1286;61435;-82
2023/05/27 01:41:47;;;;;;;;;;;;;;;22.34;49.82;100729.42;103525;1286;62484;-84
2023/05/27 01:44:15;;;;;;;;;;;;;;;22.33;49.75;100737.31;103567;1285;61324;-84
2023/05/27 01:46:43;;;;;;;;;;;;;;;22.33;49.78;100738.07;103566;1286;61616;-82
2023/05/27 01:49:10;;;;;;;;;;;;;;;22.33;49.78;100735.17;103704;1286;61369;-82
2023/05/27 01:51:36;;;;;;;;;;;;;;;22.33;49.62;100741.79;103688;1288;61385;-83
2023/05/27 01:54:02;;;;;;;;;;;;;;;22.33;49.90;100741.42;103543;1284;61334;-83
2023/05/27 01:56:29;;;;;;;;;;;;;;;22.34;49.80;100745.02;103514;1286;61377;-83
2023/05/27 01:58:55;;;;;;;;;;;;;;;22.34;49.76;100744.65;103527;1286;61329;-83
2023/05/27 02:01:22;;;;;;;;;;;;;;;22.34;49.83;100744.48;103524;1286;61314;-82
2023/05/27 02:03:48;;;;;;;;;;;;;;;22.33;49.82;100742.37;103561;1287;61515;-82
2023/05/27 02:06:13;;;;;;;;;;;;;;;22.33;49.69;100742.89;103710;1286;62628;-82
2023/05/27 02:08:39;;;;;;;;;;;;;;;22.33;49.83;100742.73;103688;1284;61371;-83
2023/05/27 02:11:04;;;;;;;;;;;;;;;22.33;49.86;100742.20;103557;1287;62059;-83
2023/05/27 02:13:30;;;;;;;;;;;;;;;22.33;49.81;100739.32;103503;1285;72473;-83
2023/05/27 02:15:56;;;;;;;;;;;;;;;22.33;49.92;100735.95;103582;1289;62401;-83
2023/05/27 02:18:21;;;;;;;;;;;;;;;22.32;49.81;100733.45;103405;1286;62378;-84
2023/05/27 02:20:48;;;;;;;;;;;;;;;22.32;49.88;100730.23;103584;1286;61316;-83
2023/05/27 02:23:14;;;;;;;;;;;;;;;22.32;49.84;100731.67;103610;1290;61364;-83
2023/05/27 02:25:39;;;;;;;;;;;;;;;22.32;49.75;100729.19;103481;1286;61377;-82
2023/05/27 02:28:05;;;;;;;;;;;;;;;22.32;49.86;100729.72;103520;1286;61529;-82
2023/05/27 02:30:31;;;;;;;;;;;;;;;22.32;49.81;100731.14;103546;1286;63071;-84
2023/05/27 02:32:57;;;;;;;;;;;;;;;22.32;49.81;100728.31;103529;1292;61346;-83
2023/05/27 02:35:22;;;;;;;;;;;;;;;22.32;49.81;100732.43;103509;1287;61435;-83
2023/05/27 02:37:48;;;;;;;;;;;;;;;22.32;49.89;100730.12;103617;1286;62463;-84
2023/05/27 02:40:23;;;;;;;;;;;;;;;22.31;49.82;100727.64;103580;1291;61321;-83
2023/05/27 02:42:49;;;;;;;;;;;;;;;22.32;49.87;100730.30;103464;1286;62442;-83
2023/05/27 02:45:15;;;;;;;;;;;;;;;22.31;50.05;100735.52;103521;1289;73161;-83
2023/05/27 02:47:41;;;;;;;;;;;;;;;22.32;49.71;100739.62;103634;1286;62504;-84
2023/05/27 02:50:07;;;;;;;;;;;;;;;22.31;49.78;100738.76;103528;1286;61348;-83
2023/05/27 02:52:33;;;;;;;;;;;;;;;22.31;49.91;100738.02;103586;1286;61467;-82
2023/05/27 02:54:58;;;;;;;;;;;;;;;22.31;49.83;100737.00;103559;1286;61346;-82
2023/05/27 02:57:24;;;;;;;;;;;;;;;22.31;49.89;100741.96;103703;1286;62162;-82
2023/05/27 02:59:49;;;;;;;;;;;;;;;22.31;49.87;100746.63;103583;1290;75326;-83
2023/05/27 03:02:15;;;;;;;;;;;;;;;22.31;49.90;100748.96;103519;1285;61454;-83
2023/05/27 03:04:41;;;;;;;;;;;;;;;22.31;49.89;100744.28;103544;1284;61351;-83
2023/05/27 03:07:06;;;;;;;;;;;;;;;22.32;49.82;100750.89;103551;1286;61477;-83
2023/05/27 03:09:32;;;;;;;;;;;;;;;22.31;49.84;100748.27;103569;1286;61378;-84
2023/05/27 03:11:58;;;;;;;;;;;;;;;22.32;49.95;100751.61;103612;1286;74410;-83
2023/05/27 03:14:23;;;;;;;;;;;;;;;22.31;49.94;100752.73;103450;1286;61324;-83
2023/05/27 03:16:49;;;;;;;;;;;;;;;22.32;49.86;100754.48;103591;1289;61339;-84
2023/05/27 03:19:14;;;;;;;;;;;;;;;22.31;49.91;100754.36;103522;1286;61387;-84
2023/05/27 03:21:40;;;;;;;;;;;;;;;22.31;49.91;100755.42;103580;1286;61416;-83
2023/05/27 03:24:06;;;;;;;;;;;;;;;22.32;49.93;100757.55;103383;1286;75645;-83
2023/05/27 03:26:31;;;;;;;;;;;;;;;22.32;49.92;100761.48;103682;1285;61383;-82
2023/05/27 03:28:59;;;;;;;;;;;;;;;22.32;49.91;100758.60;103537;1286;62033;-83
2023/05/27 03:31:25;;;;;;;;;;;;;;;22.31;50.00;100754.34;103504;1286;61423;-83
2023/05/27 03:33:50;;;;;;;;;;;;;;;22.31;49.86;100758.44;103538;1286;61822;-82
2023/05/27 03:36:16;;;;;;;;;;;;;;;22.32;49.93;100754.14;103563;1284;61477;-83
2023/05/27 03:38:41;;;;;;;;;;;;;;;22.32;49.77;100753.23;103686;1286;61839;-83
2023/05/27 03:41:07;;;;;;;;;;;;;;;22.32;49.92;100758.25;103733;1286;61415;-83
2023/05/27 03:43:33;;;;;;;;;;;;;;;22.32;49.91;100758.77;103680;1288;72836;-83
2023/05/27 03:45:58;;;;;;;;;;;;;;;22.32;49.94;100755.55;103540;1286;61397;-82
2023/05/27 03:48:24;;;;;;;;;;;;;;;22.32;49.96;100753.59;103688;1286;61406;-83
2023/05/27 03:50:49;;;;;;;;;;;;;;;22.32;49.92;100759.48;103539;1292;62544;-83
2023/05/27 03:53:15;;;;;;;;;;;;;;;22.32;49.84;100764.89;103490;1286;61467;-83
2023/05/27 03:55:41;;;;;;;;;;;;;;;22.33;49.94;100768.20;103602;1287;72331;-83
2023/05/27 03:58:06;;;;;;;;;;;;;;;22.33;49.87;100767.48;103508;1286;62609;-83
2023/05/27 04:00:33;;;;;;;;;;;;;;;22.33;49.90;100765.54;103601;1286;61407;-84
2023/05/27 04:02:59;;;;;;;;;;;;;;;22.33;49.85;100770.50;103640;1286;61397;-84
2023/05/27 04:05:25;;;;;;;;;;;;;;;22.33;49.89;100768.35;103603;1286;62440;-84
2023/05/27 04:07:51;;;;;;;;;;;;;;;22.33;49.87;100768.52;103477;1286;61474;-84
2023/05/27 04:10:17;;;;;;;;;;;;;;;22.34;49.98;100763.29;103541;1286;61409;-83
2023/05/27 04:12:43;;;;;;;;;;;;;;;22.34;49.88;100760.21;103582;1289;61724;-83
2023/05/27 04:15:08;;;;;;;;;;;;;;;22.34;49.96;100764.18;103451;1288;62410;-83
2023/05/27 04:17:35;;;;;;;;;;;;;;;22.34;49.97;100762.71;103568;1286;62541;-84
2023/05/27 04:20:00;;;;;;;;;;;;;;;22.34;49.91;100764.31;103552;1291;61262;-84
2023/05/27 04:22:26;;;;;;;;;;;;;;;22.34;49.83;100765.98;103583;1286;61393;-84
2023/05/27 04:24:52;;;;;;;;;;;;;;;22.34;49.90;100767.72;103551;1286;61387;-82
2023/05/27 04:27:19;;;;;;;;;;;;;;;22.35;49.91;100769.14;103433;1286;62356;-83
2023/05/27 04:30:06;;;;;;;;;;;;;;;22.35;49.96;100765.70;103531;1292;61311;-83
2023/05/27 04:32:32;;;;;;;;;;;;;;;22.36;49.88;100763.72;103599;1286;61368;-83
2023/05/27 04:34:59;;;;;;;;;;;;;;;22.36;49.86;100764.58;103496;1286;61275;-83
2023/05/27 04:37:27;;;;;;;;;;;;;;;22.37;49.95;100770.45;103507;1291;62441;-83
2023/05/27 04:39:56;;;;;;;;;;;;;;;22.37;49.79;100774.77;103586;1286;74437;-83
2023/05/27 04:42:23;;;;;;;;;;;;;;;22.38;49.86;100778.06;103625;1286;61266;-83
2023/05/27 04:44:48;;;;;;;;;;;;;;;22.38;49.94;100778.39;103676;1286;61338;-82
2023/05/27 04:47:15;;;;;;;;;;;;;;;22.39;49.93;100779.41;103521;1285;61253;-83
2023/05/27 04:49:40;;;;;;;;;;;;;;;22.38;49.83;100778.56;103572;1285;61410;-83
2023/05/27 04:52:06;;;;;;;;;;;;;;;22.38;49.92;100776.24;103527;1286;61720;-83
2023/05/27 04:54:33;;;;;;;;;;;;;;;22.39;49.86;100778.89;103575;1285;61407;-83
2023/05/27 04:56:59;;;;;;;;;;;;;;;22.38;49.98;100778.92;103528;1286;61266;-83
2023/05/27 04:59:35;;;;;;;;;;;;;;;22.39;49.82;100779.79;103529;1286;61479;-84
2023/05/27 05:02:10;;;;;;;;;;;;;;;22.38;49.86;100776.23;103549;1286;61374;-83
2023/05/27 05:04:37;;;;;;;;;;;;;;;22.38;49.83;100778.93;103557;1286;62257;-84
2023/05/27 05:07:03;;;;;;;;;;;;;;;22.39;49.94;100783.02;103581;1291;61380;-84
2023/05/27 05:09:29;;;;;;;;;;;;;;;22.39;49.85;100783.52;103536;1286;61959;-82
2023/05/27 05:11:55;;;;;;;;;;;;;;;22.39;49.94;100784.44;103472;1286;61399;-82
2023/05/27 05:14:21;;;;;;;;;;;;;;;22.39;49.91;100786.90;103642;1286;61695;-83
2023/05/27 05:16:47;;;;;;;;;;;;;;;22.40;49.93;100787.94;103537;1286;61497;-83
2023/05/27 05:19:12;;;;;;;;;;;;;;;22.41;49.85;100792.17;103530;1286;61326;-82
2023/05/27 05:21:38;;;;;;;;;;;;;;;22.40;49.92;100794.52;103612;1292;61383;-83
2023/05/27 05:24:03;;;;;;;;;;;;;;;22.41;49.94;100796.66;103490;1286;62527;-83
2023/05/27 05:26:29;;;;;;;;;;;;;;;22.41;49.85;100800.23;103499;1286;61480;-83
2023/05/27 05:28:55;;;;;;;;;;;;;;;22.41;49.89;100802.00;103563;1286;61365;-84
2023/05/27 05:31:21;;;;;;;;;;;;;;;22.41;49.89;100802.90;103600;1286;61387;-84
2023/05/27 05:33:46;;;;;;;;;;;;;;;22.41;49.88;100806.30;103553;1286;62330;-84
2023/05/27 05:36:12;;;;;;;;;;;;;;;22.41;49.92;100805.39;103636;1286;61349;-83
2023/05/27 05:38:38;;;;;;;;;;;;;;;22.41;49.92;100807.00;103489;1286;61381;-83
2023/05/27 05:41:03;;;;;;;;;;;;;;;22.42;49.93;100806.08;103542;1286;61852;-83
2023/05/27 05:43:29;;;;;;;;;;;;;;;22.42;49.97;100809.48;103586;1292;62541;-83
2023/05/27 05:45:54;;;;;;;;;;;;;;;22.42;49.81;100806.25;103665;1286;61326;-84
2023/05/27 05:48:20;;;;;;;;;;;;;;;22.42;49.82;100810.17;103803;1286;61394;-83
2023/05/27 05:50:45;;;;;;;;;;;;;;;22.43;49.92;100811.38;103657;1289;61672;-84
2023/05/27 05:53:11;;;;;;;;;;;;;;;22.43;49.94;100811.35;103614;1289;61378;-83
2023/05/27 05:55:37;;;;;;;;;;;;;;;22.44;49.80;100812.94;103439;1286;61390;-83
2023/05/27 05:58:02;;;;;;;;;;;;;;;22.45;49.80;100816.79;103461;1286;61494;-83
2023/05/27 06:00:28;;;;;;;;;;;;;;;22.46;49.83;100818.70;103461;1286;61431;-83
2023/05/27 06:02:53;;;;;;;;;;;;;;;22.47;49.79;100820.25;103486;1286;61378;-83
2023/05/27 06:05:20;;;;;;;;;;;;;;;22.47;49.80;100823.59;103740;1286;61384;-83
2023/05/27 06:07:46;;;;;;;;;;;;;;;22.48;49.81;100825.17;103579;1286;61342;-83
2023/05/27 06:10:12;;;;;;;;;;;;;;;22.49;49.81;100829.92;103586;1291;61387;-83
2023/05/27 06:12:37;;;;;;;;;;;;;;;22.50;49.84;100833.95;103515;1286;62301;-82
2023/05/27 06:15:03;;;;;;;;;;;;;;;22.51;49.77;100834.27;103477;1291;61490;-82
2023/05/27 06:17:28;;;;;;;;;;;;;;;22.51;49.75;100834.62;103508;1286;61464;-83
2023/05/27 06:19:54;;;;;;;;;;;;;;;22.51;49.75;100836.23;103508;1286;61474;-83
2023/05/27 06:22:20;;;;;;;;;;;;;;;22.51;49.73;100836.58;103454;1291;62458;-83
2023/05/27 06:24:45;;;;;;;;;;;;;;;22.51;49.78;100838.20;103668;1286;62551;-83
2023/05/27 06:27:11;;;;;;;;;;;;;;;22.51;49.73;100836.96;103547;1288;61755;-82
2023/05/27 06:29:36;;;;;;;;;;;;;;;22.51;49.71;100842.17;103437;1286;61445;-84
2023/05/27 06:32:02;;;;;;;;;;;;;;;22.50;49.75;100842.23;103593;1286;61339;-84
2023/05/27 06:34:28;;;;;;;;;;;;;;;22.50;49.73;100839.19;103503;1286;61445;-83
2023/05/27 06:36:53;;;;;;;;;;;;;;;22.50;49.94;100840.81;103697;1286;61364;-84
2023/05/27 06:39:19;;;;;;;;;;;;;;;22.50;49.71;100845.98;103526;1286;61454;-83
2023/05/27 06:41:44;;;;;;;;;;;;;;;22.50;49.85;100838.13;103283;1293;61400;-83
2023/05/27 06:44:11;;;;;;;;;;;;;;;22.50;49.73;100840.13;103026;1289;61423;-83
2023/05/27 06:46:36;;;;;;;;;;;;;;;22.50;49.71;100840.09;103291;1289;62279;-83
2023/05/27 06:49:02;;;;;;;;;;;;;;;22.50;49.71;100839.55;103084;1289;62257;-83
2023/05/27 06:51:27;;;;;;;;;;;;;;;22.50;49.73;100840.42;103019;1288;61390;-83
2023/05/27 06:53:53;;;;;;;;;;;;;;;22.50;49.72;100848.88;103032;1289;62745;-83
2023/05/27 06:56:18;;;;;;;;;;;;;;;22.49;49.70;100845.52;102978;1289;61401;-83
2023/05/27 06:58:45;;;;;;;;;;;;;;;22.50;49.78;100848.70;103202;1289;61509;-83
2023/05/27 07:01:12;;;;;;;;;;;;;;;22.50;49.73;100847.27;103236;1289;61362;-83
2023/05/27 07:03:37;;;;;;;;;;;;;;;22.50;49.70;100848.53;103055;1294;61452;-83
2023/05/27 07:06:03;;;;;;;;;;;;;;;22.49;49.73;100852.87;103120;1289;61391;-83
2023/05/27 07:08:28;;;;;;;;;;;;;;;22.50;49.73;100849.23;102785;1288;686978;-83
2023/05/27 07:10:54;;;;;;;;;;;;;;;22.50;49.70;100849.41;103195;1292;62106;-83
2023/05/27 07:13:21;;;;;;;;;;;;;;;22.50;49.78;100849.78;103331;1286;61313;-84
2023/05/27 07:15:47;;;;;;;;;;;;;;;22.50;49.78;100851.02;103488;1286;61470;-84
2023/05/27 07:18:12;;;;;;;;;;;;;;;22.50;49.74;100846.91;103542;1286;61368;-83
2023/05/27 07:20:38;;;;;;;;;;;;;;;22.50;49.77;100847.40;103429;1286;62522;-83
2023/05/27 07:23:04;;;;;;;;;;;;;;;22.50;49.77;100849.02;103703;1285;61754;-83
2023/05/27 07:25:29;;;;;;;;;;;;;;;22.50;49.78;100846.70;103393;1286;61918;-83
2023/05/27 07:27:55;;;;;;;;;;;;;;;22.51;49.83;100846.27;103331;1286;61346;-83
2023/05/27 07:30:20;;;;;;;;;;;;;;;22.51;49.81;100848.80;103526;1286;61403;-84
2023/05/27 07:32:46;;;;;;;;;;;;;;;22.51;49.75;100848.95;103453;1286;61423;-83
2023/05/27 07:35:11;;;;;;;;;;;;;;;22.51;49.73;100851.64;103457;1286;61876;-83
2023/05/27 07:37:37;;;;;;;;;;;;;;;22.51;49.77;100850.23;103574;1291;61390;-83
2023/05/27 07:40:03;;;;;;;;;;;;;;;22.51;49.79;100847.53;103611;1286;70617;-83
2023/05/27 07:42:29;;;;;;;;;;;;;;;22.51;49.77;100851.47;103446;1291;62410;-83
2023/05/27 07:44:55;;;;;;;;;;;;;;;22.51;49.73;100850.20;103505;1286;61362;-83
2023/05/27 07:47:20;;;;;;;;;;;;;;;22.52;49.79;100850.35;103558;1286;61394;-83
2023/05/27 07:49:46;;;;;;;;;;;;;;;22.52;49.77;100848.94;103536;1291;61357;-83
2023/05/27 07:52:11;;;;;;;;;;;;;;;22.52;49.72;100845.33;103418;1285;61390;-83
2023/05/27 07:54:37;;;;;;;;;;;;;;;22.52;49.81;100849.98;103607;1286;74560;-83
2023/05/27 07:57:02;;;;;;;;;;;;;;;22.52;49.79;100852.48;103417;1286;61398;-83
2023/05/27 07:59:29;;;;;;;;;;;;;;;22.52;49.72;100847.44;103480;1286;61461;-83
2023/05/27 08:01:55;;;;;;;;;;;;;;;22.53;49.73;100848.10;103539;1288;61605;-83
2023/05/27 08:04:20;;;;;;;;;;;;;;;22.54;49.80;100848.02;103560;1286;61435;-84
2023/05/27 08:06:46;;;;;;;;;;;;;;;22.54;49.81;100845.54;103525;1287;62577;-83
2023/05/27 08:09:11;;;;;;;;;;;;;;;22.54;49.80;100844.95;103524;1291;61403;-83
2023/05/27 08:11:37;;;;;;;;;;;;;;;22.55;49.79;100847.78;104358;1285;61397;-83
2023/05/27 08:14:02;;;;;;;;;;;;;;;22.55;49.82;100854.73;104266;1285;61361;-84
2023/05/27 08:16:28;;;;;;;;;;;;;;;22.56;49.82;100855.92;104199;1291;61474;-83
2023/05/27 08:18:53;;;;;;;;;;;;;;;22.57;49.80;100857.11;103810;1286;61393;-82
2023/05/27 08:21:19;;;;;;;;;;;;;;;22.57;49.85;100862.11;103438;1287;61470;-82
2023/05/27 08:23:46;;;;;;;;;;;;;;;22.58;49.87;100858.10;103466;1291;61538;-83
2023/05/27 08:26:11;;;;;;;;;;;;;;;22.58;49.77;100860.06;103577;1288;72424;-83
2023/05/27 08:28:37;;;;;;;;;;;;;;;22.59;49.79;100853.73;103439;1287;61422;-83
2023/05/27 08:31:03;;;;;;;;;;;;;;;22.59;49.85;100856.41;103503;1286;61387;-83
2023/05/27 08:33:29;;;;;;;;;;;;;;;22.59;49.78;100860.35;103506;1286;61404;-83
2023/05/27 08:35:55;;;;;;;;;;;;;;;22.59;49.76;100859.44;103472;1291;61365;-84
2023/05/27 08:38:22;;;;;;;;;;;;;;;22.59;49.77;100858.36;103588;1286;62416;-83
2023/05/27 08:40:47;;;;;;;;;;;;;;;22.59;49.79;100858.52;103538;1286;61317;-83
2023/05/27 08:43:13;;;;;;;;;;;;;;;22.59;49.75;100858.52;103413;1286;62144;-83
2023/05/27 08:45:40;;;;;;;;;;;;;;;22.59;49.75;100855.84;103538;1286;61300;-83
2023/05/27 08:48:09;;;;;;;;;;;;;;;22.60;49.76;100855.45;103511;1291;72822;-83
2023/05/27 08:50:34;;;;;;;;;;;;;;;22.60;49.76;100854.72;103587;1291;74309;-85
2023/05/27 08:53:00;;;;;;;;;;;;;;;22.60;49.78;100845.55;103601;1286;61944;-84
2023/05/27 08:55:26;;;;;;;;;;;;;;;22.60;49.73;100843.56;103436;1286;61502;-83
2023/05/27 08:57:55;;;;;;;;;;;;;;;22.61;49.72;100840.65;103513;1286;62441;-83
2023/05/27 09:00:20;;;;;;;;;;;;;;;22.62;49.77;100838.10;103405;1286;75628;-84
2023/05/27 09:02:46;;;;;;;;;;;;;;;22.62;49.77;100837.36;103586;1286;61381;-83
2023/05/27 09:05:13;;;;;;;;;;;;;;;22.63;49.78;100833.03;103429;1286;61365;-83
2023/05/27 09:07:39;;;;;;;;;;;;;;;22.63;49.67;100836.76;103464;1286;61378;-83
2023/05/27 09:10:06;;;;;;;;;;;;;;;22.63;49.67;100836.39;103484;1286;61476;-83
2023/05/27 09:12:37;;;;;;;;;;;;;;;22.64;49.75;100842.64;103471;1287;61301;-83
2023/05/27 09:15:03;;;;;;;;;;;;;;;22.64;49.71;100839.05;103461;1286;61332;-83
2023/05/27 09:17:29;;;;;;;;;;;;;;;22.64;49.74;100836.66;103339;1286;73409;-83
2023/05/27 09:19:55;;;;;;;;;;;;;;;22.64;49.79;100836.14;103478;1291;61390;-83
2023/05/27 09:22:24;;;;;;;;;;;;;;;22.64;49.73;100829.84;103409;1290;61335;-83
2023/05/27 09:24:54;;;;;;;;;;;;;;;22.64;49.77;100826.08;103385;1289;61360;-83
2023/05/27 09:27:23;;;;;;;;;;;;;;;22.65;49.82;100824.08;103277;1286;72571;-83
2023/05/27 09:29:49;;;;;;;;;;;;;;;22.65;49.68;100825.48;103599;1289;74539;-83
2023/05/27 09:32:23;;;;;;;;;;;;;;;22.65;49.71;100817.05;103579;1287;61832;-83
2023/05/27 09:34:48;;;;;;;;;;;;;;;22.65;49.78;100815.08;103478;1291;61334;-84
2023/05/27 09:37:14;;;;;;;;;;;;;;;22.65;49.76;100809.88;103535;1287;62640;-83
2023/05/27 09:39:40;;;;;;;;;;;;;;;22.65;49.75;100806.48;103444;1286;61391;-83
2023/05/27 09:42:07;;;;;;;;;;;;;;;22.65;49.66;100798.94;103452;1291;62561;-84
2023/05/27 09:44:37;;;;;;;;;;;;;;;22.66;49.69;100801.36;103423;1291;61321;-83
2023/05/27 09:47:03;;;;;;;;;;;;;;;22.66;49.72;100792.40;103458;1291;73313;-83
2023/05/27 09:49:29;;;;;;;;;;;;;;;22.66;49.70;100791.15;103404;1286;74255;-83
2023/05/27 09:51:54;;;;;;;;;;;;;;;22.66;49.84;100790.96;103592;1292;62467;-83
2023/05/27 09:54:20;;;;;;;;;;;;;;;22.66;49.74;100785.02;103458;1286;61436;-83
2023/05/27 09:56:45;;;;;;;;;;;;;;;22.66;49.73;100787.93;103505;1286;61410;-83
2023/05/27 09:59:11;;;;;;;;;;;;;;;22.66;49.76;100781.09;103449;1291;61438;-83
2023/05/27 10:01:37;;;;;;;;;;;;;;;22.66;49.79;100770.66;103389;1286;75156;-83
2023/05/27 10:04:02;;;;;;;;;;;;;;;22.66;49.71;100771.57;103504;1292;61426;-83
2023/05/27 10:06:29;;;;;;;;;;;;;;;22.66;49.77;100765.66;103461;1286;61324;-83
2023/05/27 10:08:57;;;;;;;;;;;;;;;22.66;49.73;100765.86;103379;1291;61383;-83
2023/05/27 10:11:23;;;;;;;;;;;;;;;22.66;49.70;100762.27;103388;1286;75363;-83
2023/05/27 10:13:49;;;;;;;;;;;;;;;22.66;49.75;100759.41;103436;1292;61404;-83
2023/05/27 10:16:21;;;;;;;;;;;;;;;22.66;49.69;100760.30;103518;1286;62475;-82
2023/05/27 10:18:52;;;;;;;;;;;;;;;22.66;49.73;100762.27;103404;1291;73772;-82
2023/05/27 10:21:18;;;;;;;;;;;;;;;22.66;49.68;100761.56;103481;1286;74371;-83
2023/05/27 10:23:51;;;;;;;;;;;;;;;22.65;49.79;100751.36;103580;1286;61416;-83
2023/05/27 10:26:17;;;;;;;;;;;;;;;22.66;49.73;100747.23;103428;1289;61938;-83
2023/05/27 10:28:42;;;;;;;;;;;;;;;22.66;49.67;100743.64;103592;1286;61386;-84
2023/05/27 10:31:12;;;;;;;;;;;;;;;22.66;49.78;100736.61;103610;1286;61352;-84
2023/05/27 10:33:38;;;;;;;;;;;;;;;22.66;49.74;100727.10;103450;1288;61374;-83
2023/05/27 10:36:04;;;;;;;;;;;;;;;22.67;49.75;100724.92;103648;1286;61307;-83
2023/05/27 10:38:30;;;;;;;;;;;;;;;22.66;49.70;100718.47;103437;1292;61575;-83
2023/05/27 10:41:00;;;;;;;;;;;;;;;22.66;49.70;100709.67;103537;1286;61403;-83
2023/05/27 10:43:26;;;;;;;;;;;;;;;22.66;49.69;100708.07;103459;1292;61324;-84
2023/05/27 10:45:52;;;;;;;;;;;;;;;22.66;49.71;100704.84;103490;1286;61359;-83
2023/05/27 10:48:18;;;;;;;;;;;;;;;22.67;49.64;100710.91;103489;1286;61391;-81
2023/05/27 10:50:49;;;;;;;;;;;;;;;22.67;49.61;100709.41;103503;1286;62522;-83
2023/05/27 10:53:17;;;;;;;;;;;;;;;22.67;49.66;100704.60;103448;1286;61297;-84
2023/05/27 10:55:42;;;;;;;;;;;;;;;22.68;49.75;100700.39;103326;1289;61403;-83
2023/05/27 10:58:08;;;;;;;;;;;;;;;22.68;49.67;100702.92;103530;1291;61444;-83
2023/05/27 11:00:33;;;;;;;;;;;;;;;22.68;49.67;100702.35;103404;1286;62310;-83
2023/05/27 11:02:59;;;;;;;;;;;;;;;22.68;49.64;100700.73;103436;1286;61391;-83
2023/05/27 11:05:32;;;;;;;;;;;;;;;22.68;49.57;100697.69;103317;1286;61388;-83
2023/05/27 11:08:00;;;;;;;;;;;;;;;22.68;49.68;100697.13;103568;1291;72952;-83
2023/05/27 11:10:26;;;;;;;;;;;;;;;22.69;49.55;100697.65;103606;1289;75217;-83
2023/05/27 11:12:52;;;;;;;;;;;;;;;22.69;49.63;100696.39;103504;1286;62529;-84
2023/05/27 11:15:18;;;;;;;;;;;;;;;22.69;49.64;100693.34;103529;1286;61355;-83
2023/05/27 11:17:43;;;;;;;;;;;;;;;22.69;49.69;100692.60;103467;1291;61492;-84
2023/05/27 11:20:10;;;;;;;;;;;;;;;22.69;49.61;100690.98;103396;1291;61383;-83
2023/05/27 11:22:36;;;;;;;;;;;;;;;22.69;49.64;100691.89;103469;1286;62430;-82
2023/05/27 11:25:02;;;;;;;;;;;;;;;22.69;49.55;100692.63;103518;1292;62602;-83
2023/05/27 11:27:35;;;;;;;;;;;;;;;22.69;49.58;100693.67;103467;1287;61358;-83
2023/05/27 11:30:05;;;;;;;;;;;;;;;22.69;49.55;100690.09;103531;1291;74535;-83
2023/05/27 11:32:32;;;;;;;;;;;;;;;22.69;49.61;100685.22;103452;1286;61324;-83
2023/05/27 11:34:58;;;;;;;;;;;;;;;22.69;49.63;100679.30;103400;1289;61179;-84
2023/05/27 11:37:23;;;;;;;;;;;;;;;22.69;49.64;100678.04;103363;1291;61387;-83
2023/05/27 11:39:49;;;;;;;;;;;;;;;22.69;49.67;100684.65;103458;1286;62491;-84
2023/05/27 11:42:20;;;;;;;;;;;;;;;22.69;49.49;100682.19;103592;1287;61396;-84
2023/05/27 11:44:49;;;;;;;;;;;;;;;22.69;49.62;100682.90;103434;1286;61388;-83
2023/05/27 11:47:15;;;;;;;;;;;;;;;22.69;49.61;100680.06;103374;1293;72079;-84
2023/05/27 11:49:40;;;;;;;;;;;;;;;22.69;49.60;100675.52;103623;1291;61330;-83
2023/05/27 11:52:06;;;;;;;;;;;;;;;22.70;49.58;100679.09;103420;1291;62436;-83
2023/05/27 11:54:31;;;;;;;;;;;;;;;22.70;49.62;100677.83;103553;1286;61398;-84
2023/05/27 11:56:58;;;;;;;;;;;;;;;22.70;49.54;100684.62;103496;1289;61451;-83
2023/05/27 11:59:24;;;;;;;;;;;;;;;22.70;49.59;100705.42;103439;1291;72536;-83
2023/05/27 12:01:51;;;;;;;;;;;;;;;22.70;49.62;100709.89;103449;1286;61424;-84
2023/05/27 12:04:16;;;;;;;;;;;;;;;22.70;49.58;100717.12;103470;1286;61468;-83
2023/05/27 12:06:42;;;;;;;;;;;;;;;22.70;49.59;100719.78;103600;1286;61374;-84
2023/05/27 12:09:10;;;;;;;;;;;;;;;22.70;49.60;100714.56;103392;1291;61378;-83
2023/05/27 12:11:36;;;;;;;;;;;;;;;22.70;49.52;100705.65;103497;1291;62413;-84
2023/05/27 12:14:02;;;;;;;;;;;;;;;22.70;49.57;100701.17;103441;1286;61865;-84
2023/05/27 12:16:27;;;;;;;;;;;;;;;22.69;49.64;100698.84;103375;1291;61471;-84
2023/05/27 12:18:53;;;;;;;;;;;;;;;22.69;49.57;100693.70;103416;1292;61675;-84
2023/05/27 12:21:19;;;;;;;;;;;;;;;22.69;49.54;100692.45;103413;1291;72704;-83